Aviation Digital Data Service (ADDS)

Output produced by METARs form (2005 UTC 13 November 2019)
found at http://www.aviationweather.gov/metar/data/
 
METAR text: YSSY 131930Z 26011KT CAVOK 17/01 Q1014 FM1930 MOD TURB BLW 5000FT TL2000
Conditions at: YSSY (SYDNEY INTL AIRP, AU) observed 1930 UTC 13 November 2019
Temperature: 17.0°C (63°F)
Dewpoint: 1.0°C (34°F) [RH = 34%]
Pressure (altimeter): 29.94 inches Hg (1014.0 mb)
Winds: from the W (260 degrees) at 13 MPH (11 knots; 5.7 m/s)
Visibility: 6 or more miles (10+ km)
Ceiling: ceiling and visibility are OK
Clouds: unknown
Weather: no significant weather observed at this time

METAR text: YSSY 131900Z 26010KT CAVOK 16/01 Q1014 FM1900 MOD TURB BLW 5000FT TL2000
Conditions at: YSSY (SYDNEY INTL AIRP, AU) observed 1900 UTC 13 November 2019
Temperature: 16.0°C (61°F)
Dewpoint: 1.0°C (34°F) [RH = 36%]
Pressure (altimeter): 29.94 inches Hg (1014.0 mb)
Winds: from the W (260 degrees) at 12 MPH (10 knots; 5.1 m/s)
Visibility: 6 or more miles (10+ km)
Ceiling: ceiling and visibility are OK
Clouds: unknown
Weather: no significant weather observed at this time

METAR text: YSSY 131830Z 26010KT CAVOK 16/01 Q1014 FM1830 MOD TURB BLW 5000FT TL2000
Conditions at: YSSY (SYDNEY INTL AIRP, AU) observed 1830 UTC 13 November 2019
Temperature: 16.0°C (61°F)
Dewpoint: 1.0°C (34°F) [RH = 36%]
Pressure (altimeter): 29.94 inches Hg (1014.0 mb)
Winds: from the W (260 degrees) at 12 MPH (10 knots; 5.1 m/s)
Visibility: 6 or more miles (10+ km)
Ceiling: ceiling and visibility are OK
Clouds: unknown
Weather: no significant weather observed at this time

METAR text: YSSY 131800Z 26010KT CAVOK 16/01 Q1013 FM1800 MOD TURB BLW 5000FT TL2000
Conditions at: YSSY (SYDNEY INTL AIRP, AU) observed 1800 UTC 13 November 2019
Temperature: 16.0°C (61°F)
Dewpoint: 1.0°C (34°F) [RH = 36%]
Pressure (altimeter): 29.91 inches Hg (1013.0 mb)
Winds: from the W (260 degrees) at 12 MPH (10 knots; 5.1 m/s)
Visibility: 6 or more miles (10+ km)
Ceiling: ceiling and visibility are OK
Clouds: unknown
Weather: no significant weather observed at this time

METAR text: YSSY 131730Z 26008KT CAVOK 17/00 Q1013 FM1730 MOD TURB BLW 5000FT TL2000
Conditions at: YSSY (SYDNEY INTL AIRP, AU) observed 1730 UTC 13 November 2019
Temperature: 17.0°C (63°F)
Dewpoint: 0.0°C (32°F) [RH = 32%]
Pressure (altimeter): 29.91 inches Hg (1013.0 mb)
Winds: from the W (260 degrees) at 9 MPH (8 knots; 4.1 m/s)
Visibility: 6 or more miles (10+ km)
Ceiling: ceiling and visibility are OK
Clouds: unknown
Weather: no significant weather observed at this time

METAR text: YSSY 131700Z 28008KT CAVOK 17/M00 Q1013 FM1700 MOD TURB BLW 5000FT TL2000
Conditions at: YSSY (SYDNEY INTL AIRP, AU) observed 1700 UTC 13 November 2019
Temperature: 17.0°C (63°F)
Dewpoint: 0.0°C (32°F) [RH = 32%]
Pressure (altimeter): 29.91 inches Hg (1013.0 mb)
Winds: from the W (280 degrees) at 9 MPH (8 knots; 4.1 m/s)
Visibility: 6 or more miles (10+ km)
Ceiling: ceiling and visibility are OK
Clouds: unknown
Weather: no significant weather observed at this time

METAR text: YSSY 131630Z 27009KT CAVOK 17/M00 Q1013 NOSIG
Conditions at: YSSY (SYDNEY INTL AIRP, AU) observed 1630 UTC 13 November 2019
Temperature: 17.0°C (63°F)
Dewpoint: 0.0°C (32°F) [RH = 32%]
Pressure (altimeter): 29.91 inches Hg (1013.0 mb)
Winds: from the W (270 degrees) at 10 MPH (9 knots; 4.6 m/s)
Visibility: 6 or more miles (10+ km)
Ceiling: ceiling and visibility are OK
Clouds: unknown
Weather: no significant weather observed at this time

METAR text: YSSY 131600Z 26009KT CAVOK 17/M00 Q1013 NOSIG
Conditions at: YSSY (SYDNEY INTL AIRP, AU) observed 1600 UTC 13 November 2019
Temperature: 17.0°C (63°F)
Dewpoint: 0.0°C (32°F) [RH = 32%]
Pressure (altimeter): 29.91 inches Hg (1013.0 mb)
Winds: from the W (260 degrees) at 10 MPH (9 knots; 4.6 m/s)
Visibility: 6 or more miles (10+ km)
Ceiling: ceiling and visibility are OK
Clouds: unknown
Weather: no significant weather observed at this time

METAR text: YSSY 131530Z 25008KT CAVOK 17/M00 Q1013 NOSIG
Conditions at: YSSY (SYDNEY INTL AIRP, AU) observed 1530 UTC 13 November 2019
Temperature: 17.0°C (63°F)
Dewpoint: 0.0°C (32°F) [RH = 32%]
Pressure (altimeter): 29.91 inches Hg (1013.0 mb)
Winds: from the WSW (250 degrees) at 9 MPH (8 knots; 4.1 m/s)
Visibility: 6 or more miles (10+ km)
Ceiling: ceiling and visibility are OK
Clouds: unknown
Weather: no significant weather observed at this time

METAR text: YSSY 131500Z 28009KT CAVOK 17/M00 Q1013 NOSIG
Conditions at: YSSY (SYDNEY INTL AIRP, AU) observed 1500 UTC 13 November 2019
Temperature: 17.0°C (63°F)
Dewpoint: 0.0°C (32°F) [RH = 32%]
Pressure (altimeter): 29.91 inches Hg (1013.0 mb)
Winds: from the W (280 degrees) at 10 MPH (9 knots; 4.6 m/s)
Visibility: 6 or more miles (10+ km)
Ceiling: ceiling and visibility are OK
Clouds: unknown
Weather: no significant weather observed at this time

METAR text: YSSY 131430Z 28009KT CAVOK 17/01 Q1013 NOSIG
Conditions at: YSSY (SYDNEY INTL AIRP, AU) observed 1430 UTC 13 November 2019
Temperature: 17.0°C (63°F)
Dewpoint: 1.0°C (34°F) [RH = 34%]
Pressure (altimeter): 29.91 inches Hg (1013.0 mb)
Winds: from the W (280 degrees) at 10 MPH (9 knots; 4.6 m/s)
Visibility: 6 or more miles (10+ km)
Ceiling: ceiling and visibility are OK
Clouds: unknown
Weather: no significant weather observed at this time

METAR text: YSSY 131400Z 25008KT CAVOK 17/01 Q1014 NOSIG
Conditions at: YSSY (SYDNEY INTL AIRP, AU) observed 1400 UTC 13 November 2019
Temperature: 17.0°C (63°F)
Dewpoint: 1.0°C (34°F) [RH = 34%]
Pressure (altimeter): 29.94 inches Hg (1014.0 mb)
Winds: from the WSW (250 degrees) at 9 MPH (8 knots; 4.1 m/s)
Visibility: 6 or more miles (10+ km)
Ceiling: ceiling and visibility are OK
Clouds: unknown
Weather: no significant weather observed at this time

METAR text: YSSY 131330Z 28007KT CAVOK 17/03 Q1014 NOSIG
Conditions at: YSSY (SYDNEY INTL AIRP, AU) observed 1330 UTC 13 November 2019
Temperature: 17.0°C (63°F)
Dewpoint: 3.0°C (37°F) [RH = 39%]
Pressure (altimeter): 29.94 inches Hg (1014.0 mb)
Winds: from the W (280 degrees) at 8 MPH (7 knots; 3.6 m/s)
Visibility: 6 or more miles (10+ km)
Ceiling: ceiling and visibility are OK
Clouds: unknown
Weather: no significant weather observed at this time

METAR text: YSSY 131300Z 35005KT CAVOK 18/07 Q1014 NOSIG
Conditions at: YSSY (SYDNEY INTL AIRP, AU) observed 1300 UTC 13 November 2019
Temperature: 18.0°C (64°F)
Dewpoint: 7.0°C (45°F) [RH = 49%]
Pressure (altimeter): 29.94 inches Hg (1014.0 mb)
Winds: from the N (350 degrees) at 6 MPH (5 knots; 2.6 m/s)
Visibility: 6 or more miles (10+ km)
Ceiling: ceiling and visibility are OK
Clouds: unknown
Weather: no significant weather observed at this time

METAR text: YSSY 131230Z 33006KT CAVOK 18/08 Q1013 NOSIG
Conditions at: YSSY (SYDNEY INTL AIRP, AU) observed 1230 UTC 13 November 2019
Temperature: 18.0°C (64°F)
Dewpoint: 8.0°C (46°F) [RH = 52%]
Pressure (altimeter): 29.91 inches Hg (1013.0 mb)
Winds: from the NNW (330 degrees) at 7 MPH (6 knots; 3.1 m/s)
Visibility: 6 or more miles (10+ km)
Ceiling: ceiling and visibility are OK
Clouds: unknown
Weather: no significant weather observed at this time

METAR text: YSSY 131200Z 35002KT CAVOK 19/08 Q1013 NOSIG
Conditions at: YSSY (SYDNEY INTL AIRP, AU) observed 1200 UTC 13 November 2019
Temperature: 19.0°C (66°F)
Dewpoint: 8.0°C (46°F) [RH = 49%]
Pressure (altimeter): 29.91 inches Hg (1013.0 mb)
Winds: from the N (350 degrees) at 2 MPH (2 knots; 1.0 m/s)
Visibility: 6 or more miles (10+ km)
Ceiling: ceiling and visibility are OK
Clouds: unknown
Weather: no significant weather observed at this time

METAR text: YSSY 131130Z 03003KT CAVOK 19/09 Q1013 NOSIG
Conditions at: YSSY (SYDNEY INTL AIRP, AU) observed 1130 UTC 13 November 2019
Temperature: 19.0°C (66°F)
Dewpoint: 9.0°C (48°F) [RH = 52%]
Pressure (altimeter): 29.91 inches Hg (1013.0 mb)
Winds: from the NNE (30 degrees) at 3 MPH (3 knots; 1.5 m/s)
Visibility: 6 or more miles (10+ km)
Ceiling: ceiling and visibility are OK
Clouds: unknown
Weather: no significant weather observed at this time

METAR text: YSSY 131100Z 08004KT CAVOK 19/09 Q1013 NOSIG
Conditions at: YSSY (SYDNEY INTL AIRP, AU) observed 1100 UTC 13 November 2019
Temperature: 19.0°C (66°F)
Dewpoint: 9.0°C (48°F) [RH = 52%]
Pressure (altimeter): 29.91 inches Hg (1013.0 mb)
Winds: from the E (80 degrees) at 5 MPH (4 knots; 2.1 m/s)
Visibility: 6 or more miles (10+ km)
Ceiling: ceiling and visibility are OK
Clouds: unknown
Weather: no significant weather observed at this time

METAR text: YSSY 131030Z 35008KT CAVOK 19/09 Q1013 NOSIG
Conditions at: YSSY (SYDNEY INTL AIRP, AU) observed 1030 UTC 13 November 2019
Temperature: 19.0°C (66°F)
Dewpoint: 9.0°C (48°F) [RH = 52%]
Pressure (altimeter): 29.91 inches Hg (1013.0 mb)
Winds: from the N (350 degrees) at 9 MPH (8 knots; 4.1 m/s)
Visibility: 6 or more miles (10+ km)
Ceiling: ceiling and visibility are OK
Clouds: unknown
Weather: no significant weather observed at this time

METAR text: YSSY 131000Z 01008KT CAVOK 19/09 Q1013 NOSIG
Conditions at: YSSY (SYDNEY INTL AIRP, AU) observed 1000 UTC 13 November 2019
Temperature: 19.0°C (66°F)
Dewpoint: 9.0°C (48°F) [RH = 52%]
Pressure (altimeter): 29.91 inches Hg (1013.0 mb)
Winds: from the N (10 degrees) at 9 MPH (8 knots; 4.1 m/s)
Visibility: 6 or more miles (10+ km)
Ceiling: ceiling and visibility are OK
Clouds: unknown
Weather: no significant weather observed at this time

METAR text: YSSY 130930Z 03009KT CAVOK 20/09 Q1012 NOSIG
Conditions at: YSSY (SYDNEY INTL AIRP, AU) observed 0930 UTC 13 November 2019
Temperature: 20.0°C (68°F)
Dewpoint: 9.0°C (48°F) [RH = 49%]
Pressure (altimeter): 29.88 inches Hg (1012.0 mb)
Winds: from the NNE (30 degrees) at 10 MPH (9 knots; 4.6 m/s)
Visibility: 6 or more miles (10+ km)
Ceiling: ceiling and visibility are OK
Clouds: unknown
Weather: no significant weather observed at this time

METAR text: YSSY 130900Z 03008KT CAVOK 20/08 Q1012 NOSIG
Conditions at: YSSY (SYDNEY INTL AIRP, AU) observed 0900 UTC 13 November 2019
Temperature: 20.0°C (68°F)
Dewpoint: 8.0°C (46°F) [RH = 46%]
Pressure (altimeter): 29.88 inches Hg (1012.0 mb)
Winds: from the NNE (30 degrees) at 9 MPH (8 knots; 4.1 m/s)
Visibility: 6 or more miles (10+ km)
Ceiling: ceiling and visibility are OK
Clouds: unknown
Weather: no significant weather observed at this time

METAR text: YSSY 130830Z 03010KT CAVOK 19/08 Q1011 NOSIG
Conditions at: YSSY (SYDNEY INTL AIRP, AU) observed 0830 UTC 13 November 2019
Temperature: 19.0°C (66°F)
Dewpoint: 8.0°C (46°F) [RH = 49%]
Pressure (altimeter): 29.85 inches Hg (1011.0 mb)
Winds: from the NNE (30 degrees) at 12 MPH (10 knots; 5.1 m/s)
Visibility: 6 or more miles (10+ km)
Ceiling: ceiling and visibility are OK
Clouds: unknown
Weather: no significant weather observed at this time

METAR text: YSSY 130800Z 05010KT CAVOK 19/07 Q1011 NOSIG
Conditions at: YSSY (SYDNEY INTL AIRP, AU) observed 0800 UTC 13 November 2019
Temperature: 19.0°C (66°F)
Dewpoint: 7.0°C (45°F) [RH = 46%]
Pressure (altimeter): 29.85 inches Hg (1011.0 mb)
Winds: from the NE (50 degrees) at 12 MPH (10 knots; 5.1 m/s)
Visibility: 6 or more miles (10+ km)
Ceiling: ceiling and visibility are OK
Clouds: unknown
Weather: no significant weather observed at this time

METAR text: YSSY 130730Z 03011KT CAVOK 20/07 Q1010 NOSIG
Conditions at: YSSY (SYDNEY INTL AIRP, AU) observed 0730 UTC 13 November 2019
Temperature: 20.0°C (68°F)
Dewpoint: 7.0°C (45°F) [RH = 43%]
Pressure (altimeter): 29.82 inches Hg (1010.0 mb)
Winds: from the NNE (30 degrees) at 13 MPH (11 knots; 5.7 m/s)
Visibility: 6 or more miles (10+ km)
Ceiling: ceiling and visibility are OK
Clouds: unknown
Weather: no significant weather observed at this time

METAR text: YSSY 130700Z 06013KT CAVOK 20/07 Q1010
Conditions at: YSSY (SYDNEY INTL AIRP, AU) observed 0700 UTC 13 November 2019
Temperature: 20.0°C (68°F)
Dewpoint: 7.0°C (45°F) [RH = 43%]
Pressure (altimeter): 29.82 inches Hg (1010.0 mb)
Winds: from the ENE (60 degrees) at 15 MPH (13 knots; 6.7 m/s)
Visibility: 6 or more miles (10+ km)
Ceiling: ceiling and visibility are OK
Clouds: unknown
Weather: no significant weather observed at this time

METAR text: YSSY 130630Z 06016KT CAVOK 20/08 Q1010 NOSIG
Conditions at: YSSY (SYDNEY INTL AIRP, AU) observed 0630 UTC 13 November 2019
Temperature: 20.0°C (68°F)
Dewpoint: 8.0°C (46°F) [RH = 46%]
Pressure (altimeter): 29.82 inches Hg (1010.0 mb)
Winds: from the ENE (60 degrees) at 18 MPH (16 knots; 8.2 m/s)
Visibility: 6 or more miles (10+ km)
Ceiling: ceiling and visibility are OK
Clouds: unknown
Weather: no significant weather observed at this time

METAR text: YSSY 130600Z 07013KT CAVOK 20/07 Q1010 NOSIG
Conditions at: YSSY (SYDNEY INTL AIRP, AU) observed 0600 UTC 13 November 2019
Temperature: 20.0°C (68°F)
Dewpoint: 7.0°C (45°F) [RH = 43%]
Pressure (altimeter): 29.82 inches Hg (1010.0 mb)
Winds: from the ENE (70 degrees) at 15 MPH (13 knots; 6.7 m/s)
Visibility: 6 or more miles (10+ km)
Ceiling: ceiling and visibility are OK
Clouds: unknown
Weather: no significant weather observed at this time

METAR text: YSSY 130530Z 07014KT CAVOK 21/06 Q1010 NOSIG
Conditions at: YSSY (SYDNEY INTL AIRP, AU) observed 0530 UTC 13 November 2019
Temperature: 21.0°C (70°F)
Dewpoint: 6.0°C (43°F) [RH = 38%]
Pressure (altimeter): 29.82 inches Hg (1010.0 mb)
Winds: from the ENE (70 degrees) at 16 MPH (14 knots; 7.2 m/s)
Visibility: 6 or more miles (10+ km)
Ceiling: ceiling and visibility are OK
Clouds: unknown
Weather: no significant weather observed at this time

METAR text: YSSY 130500Z 07013KT CAVOK 21/04 Q1010
Conditions at: YSSY (SYDNEY INTL AIRP, AU) observed 0500 UTC 13 November 2019
Temperature: 21.0°C (70°F)
Dewpoint: 4.0°C (39°F) [RH = 33%]
Pressure (altimeter): 29.82 inches Hg (1010.0 mb)
Winds: from the ENE (70 degrees) at 15 MPH (13 knots; 6.7 m/s)
Visibility: 6 or more miles (10+ km)
Ceiling: ceiling and visibility are OK
Clouds: unknown
Weather: no significant weather observed at this time

METAR text: YSSY 130430Z 07012KT CAVOK 21/04 Q1010 NOSIG
Conditions at: YSSY (SYDNEY INTL AIRP, AU) observed 0430 UTC 13 November 2019
Temperature: 21.0°C (70°F)
Dewpoint: 4.0°C (39°F) [RH = 33%]
Pressure (altimeter): 29.82 inches Hg (1010.0 mb)
Winds: from the ENE (70 degrees) at 14 MPH (12 knots; 6.2 m/s)
Visibility: 6 or more miles (10+ km)
Ceiling: ceiling and visibility are OK
Clouds: unknown
Weather: no significant weather observed at this time

METAR text: YSSY 130400Z 08013KT CAVOK 21/01 Q1011 FM0600 06012KT CAVOK
Conditions at: YSSY (SYDNEY INTL AIRP, AU) observed 0400 UTC 13 November 2019
Temperature: 21.0°C (70°F)
Dewpoint: 1.0°C (34°F) [RH = 26%]
Pressure (altimeter): 29.85 inches Hg (1011.0 mb)
Winds: from the E (80 degrees) at 15 MPH (13 knots; 6.7 m/s)
Visibility: 6 or more miles (10+ km)
Ceiling: ceiling and visibility are OK
Clouds: unknown
Weather: no significant weather observed at this time

METAR text: YSSY 130330Z 12011KT CAVOK 21/02 Q1012
Conditions at: YSSY (SYDNEY INTL AIRP, AU) observed 0330 UTC 13 November 2019
Temperature: 21.0°C (70°F)
Dewpoint: 2.0°C (36°F) [RH = 28%]
Pressure (altimeter): 29.88 inches Hg (1012.0 mb)
Winds: from the ESE (120 degrees) at 13 MPH (11 knots; 5.7 m/s)
Visibility: 6 or more miles (10+ km)
Ceiling: ceiling and visibility are OK
Clouds: unknown
Weather: no significant weather observed at this time

METAR text: YSSY 130300Z 10012KT CAVOK 21/01 Q1012 NOSIG
Conditions at: YSSY (SYDNEY INTL AIRP, AU) observed 0300 UTC 13 November 2019
Temperature: 21.0°C (70°F)
Dewpoint: 1.0°C (34°F) [RH = 26%]
Pressure (altimeter): 29.88 inches Hg (1012.0 mb)
Winds: from the E (100 degrees) at 14 MPH (12 knots; 6.2 m/s)
Visibility: 6 or more miles (10+ km)
Ceiling: ceiling and visibility are OK
Clouds: unknown
Weather: no significant weather observed at this time

METAR text: YSSY 130230Z 13013KT CAVOK 20/01 Q1012
Conditions at: YSSY (SYDNEY INTL AIRP, AU) observed 0230 UTC 13 November 2019
Temperature: 20.0°C (68°F)
Dewpoint: 1.0°C (34°F) [RH = 28%]
Pressure (altimeter): 29.88 inches Hg (1012.0 mb)
Winds: from the SE (130 degrees) at 15 MPH (13 knots; 6.7 m/s)
Visibility: 6 or more miles (10+ km)
Ceiling: ceiling and visibility are OK
Clouds: unknown
Weather: no significant weather observed at this time

METAR text: YSSY 130200Z 13015KT CAVOK 21/01 Q1012
Conditions at: YSSY (SYDNEY INTL AIRP, AU) observed 0200 UTC 13 November 2019
Temperature: 21.0°C (70°F)
Dewpoint: 1.0°C (34°F) [RH = 26%]
Pressure (altimeter): 29.88 inches Hg (1012.0 mb)
Winds: from the SE (130 degrees) at 17 MPH (15 knots; 7.7 m/s)
Visibility: 6 or more miles (10+ km)
Ceiling: ceiling and visibility are OK
Clouds: unknown
Weather: no significant weather observed at this time

METAR text: YSSY 130130Z 13014KT CAVOK 21/00 Q1013
Conditions at: YSSY (SYDNEY INTL AIRP, AU) observed 0130 UTC 13 November 2019
Temperature: 21.0°C (70°F)
Dewpoint: 0.0°C (32°F) [RH = 25%]
Pressure (altimeter): 29.91 inches Hg (1013.0 mb)
Winds: from the SE (130 degrees) at 16 MPH (14 knots; 7.2 m/s)
Visibility: 6 or more miles (10+ km)
Ceiling: ceiling and visibility are OK
Clouds: unknown
Weather: no significant weather observed at this time

METAR text: YSSY 130100Z 12013KT CAVOK 21/M01 Q1013
Conditions at: YSSY (SYDNEY INTL AIRP, AU) observed 0100 UTC 13 November 2019
Temperature: 21.0°C (70°F)
Dewpoint: -1.0°C (30°F) [RH = 23%]
Pressure (altimeter): 29.91 inches Hg (1013.0 mb)
Winds: from the ESE (120 degrees) at 15 MPH (13 knots; 6.7 m/s)
Visibility: 6 or more miles (10+ km)
Ceiling: ceiling and visibility are OK
Clouds: unknown
Weather: no significant weather observed at this time

METAR text: YSSY 130030Z 14010KT CAVOK 21/M01 Q1013 NOSIG
Conditions at: YSSY (SYDNEY INTL AIRP, AU) observed 0030 UTC 13 November 2019
Temperature: 21.0°C (70°F)
Dewpoint: -1.0°C (30°F) [RH = 23%]
Pressure (altimeter): 29.91 inches Hg (1013.0 mb)
Winds: from the SE (140 degrees) at 12 MPH (10 knots; 5.1 m/s)
Visibility: 6 or more miles (10+ km)
Ceiling: ceiling and visibility are OK
Clouds: unknown
Weather: no significant weather observed at this time

METAR text: YSSY 130000Z 19005KT 130V250 9999 FEW047 21/M05 Q1013
Conditions at: YSSY (SYDNEY INTL AIRP, AU) observed 0000 UTC 13 November 2019
Temperature: 21.0°C (70°F)
Dewpoint: -5.0°C (23°F) [RH = 17%]
Pressure (altimeter): 29.91 inches Hg (1013.0 mb)
Winds: from the S (190 degrees) at 6 MPH (5 knots; 2.6 m/s)
Visibility: 6 or more miles (10+ km)
Ceiling: at least 12,000 feet AGL
Clouds: few clouds at 4700 feet AGL
Weather: no significant weather observed at this time

METAR text: YSSY 122330Z 24009KT 200V280 9999 FEW044 20/M04 Q1013
Conditions at: YSSY (SYDNEY INTL AIRP, AU) observed 2330 UTC 12 November 2019
Temperature: 20.0°C (68°F)
Dewpoint: -4.0°C (25°F) [RH = 19%]
Pressure (altimeter): 29.91 inches Hg (1013.0 mb)
Winds: from the WSW (240 degrees) at 10 MPH (9 knots; 4.6 m/s)
Visibility: 6 or more miles (10+ km)
Ceiling: at least 12,000 feet AGL
Clouds: few clouds at 4400 feet AGL
Weather: no significant weather observed at this time

METAR text: YSSY 122300Z 26011KT 9999 FEW040 19/M04 Q1013
Conditions at: YSSY (SYDNEY INTL AIRP, AU) observed 2300 UTC 12 November 2019
Temperature: 19.0°C (66°F)
Dewpoint: -4.0°C (25°F) [RH = 21%]
Pressure (altimeter): 29.91 inches Hg (1013.0 mb)
Winds: from the W (260 degrees) at 13 MPH (11 knots; 5.7 m/s)
Visibility: 6 or more miles (10+ km)
Ceiling: at least 12,000 feet AGL
Clouds: few clouds at 4000 feet AGL
Weather: no significant weather observed at this time

METAR text: YSSY 122230Z 26015KT 9999 FEW040 19/M03 Q1013
Conditions at: YSSY (SYDNEY INTL AIRP, AU) observed 2230 UTC 12 November 2019
Temperature: 19.0°C (66°F)
Dewpoint: -3.0°C (27°F) [RH = 22%]
Pressure (altimeter): 29.91 inches Hg (1013.0 mb)
Winds: from the W (260 degrees) at 17 MPH (15 knots; 7.7 m/s)
Visibility: 6 or more miles (10+ km)
Ceiling: at least 12,000 feet AGL
Clouds: few clouds at 4000 feet AGL
Weather: no significant weather observed at this time

METAR text: YSSY 122200Z 26015KT 9999 FEW040 18/M03 Q1013 FM2300 22012KT CAVOK FM2200 MOD TURB BLW 5000FT TL2230
Conditions at: YSSY (SYDNEY INTL AIRP, AU) observed 2200 UTC 12 November 2019
Temperature: 18.0°C (64°F)
Dewpoint: -3.0°C (27°F) [RH = 24%]
Pressure (altimeter): 29.91 inches Hg (1013.0 mb)
Winds: from the W (260 degrees) at 17 MPH (15 knots; 7.7 m/s)
Visibility: 6 or more miles (10+ km)
Ceiling: at least 12,000 feet AGL
Clouds: few clouds at 4000 feet AGL
Weather: no significant weather observed at this time

METAR text: YSSY 122130Z 27017KT 9999 FEW036 18/M01 Q1013 FM2130 MOD TURB BLW 5000FT TL2230
Conditions at: YSSY (SYDNEY INTL AIRP, AU) observed 2130 UTC 12 November 2019
Temperature: 18.0°C (64°F)
Dewpoint: -1.0°C (30°F) [RH = 28%]
Pressure (altimeter): 29.91 inches Hg (1013.0 mb)
Winds: from the W (270 degrees) at 20 MPH (17 knots; 8.7 m/s)
Visibility: 6 or more miles (10+ km)
Ceiling: at least 12,000 feet AGL
Clouds: few clouds at 3600 feet AGL
Weather: no significant weather observed at this time

METAR text: YSSY 122100Z 27019KT 9999 FEW035 18/M01 Q1013 FM2100 MOD TURB BLW 5000FT TL2230
Conditions at: YSSY (SYDNEY INTL AIRP, AU) observed 2100 UTC 12 November 2019
Temperature: 18.0°C (64°F)
Dewpoint: -1.0°C (30°F) [RH = 28%]
Pressure (altimeter): 29.91 inches Hg (1013.0 mb)
Winds: from the W (270 degrees) at 22 MPH (19 knots; 9.8 m/s)
Visibility: 6 or more miles (10+ km)
Ceiling: at least 12,000 feet AGL
Clouds: few clouds at 3500 feet AGL
Weather: no significant weather observed at this time

METAR text: YSSY 122030Z 26009KT 9999 FEW035 17/00 Q1013 FM2030 MOD TURB BLW 5000FT TL2200
Conditions at: YSSY (SYDNEY INTL AIRP, AU) observed 2030 UTC 12 November 2019
Temperature: 17.0°C (63°F)
Dewpoint: 0.0°C (32°F) [RH = 32%]
Pressure (altimeter): 29.91 inches Hg (1013.0 mb)
Winds: from the W (260 degrees) at 10 MPH (9 knots; 4.6 m/s)
Visibility: 6 or more miles (10+ km)
Ceiling: at least 12,000 feet AGL
Clouds: few clouds at 3500 feet AGL
Weather: no significant weather observed at this time

METAR text: YSSY 122000Z 27013KT 9999 FEW030 16/03 Q1012 FM2000 MOD TURB BLW 5000FT TL2200
Conditions at: YSSY (SYDNEY INTL AIRP, AU) observed 2000 UTC 12 November 2019
Temperature: 16.0°C (61°F)
Dewpoint: 3.0°C (37°F) [RH = 42%]
Pressure (altimeter): 29.88 inches Hg (1012.0 mb)
Winds: from the W (270 degrees) at 15 MPH (13 knots; 6.7 m/s)
Visibility: 6 or more miles (10+ km)
Ceiling: at least 12,000 feet AGL
Clouds: few clouds at 3000 feet AGL
Weather: no significant weather observed at this time

METAR text: YSSY 121930Z 27012KT 9999 FEW030 15/06 Q1012
Conditions at: YSSY (SYDNEY INTL AIRP, AU) observed 1930 UTC 12 November 2019
Temperature: 15.0°C (59°F)
Dewpoint: 6.0°C (43°F) [RH = 55%]
Pressure (altimeter): 29.88 inches Hg (1012.0 mb)
Winds: from the W (270 degrees) at 14 MPH (12 knots; 6.2 m/s)
Visibility: 6 or more miles (10+ km)
Ceiling: at least 12,000 feet AGL
Clouds: few clouds at 3000 feet AGL
Weather: no significant weather observed at this time

METAR text: YSSY 121900Z 26012KT 9999 FEW018 14/08 Q1011 FM1900 MOD TURB BLW 5000FT
Conditions at: YSSY (SYDNEY INTL AIRP, AU) observed 1900 UTC 12 November 2019
Temperature: 14.0°C (57°F)
Dewpoint: 8.0°C (46°F) [RH = 67%]
Pressure (altimeter): 29.85 inches Hg (1011.0 mb)
Winds: from the W (260 degrees) at 14 MPH (12 knots; 6.2 m/s)
Visibility: 6 or more miles (10+ km)
Ceiling: at least 12,000 feet AGL
Clouds: few clouds at 1800 feet AGL
Weather: no significant weather observed at this time

METAR text: YSSY 121830Z 27011KT 9999 FEW020 15/09 Q1011 FM1830 MOD TURB BLW 5000FT
Conditions at: YSSY (SYDNEY INTL AIRP, AU) observed 1830 UTC 12 November 2019
Temperature: 15.0°C (59°F)
Dewpoint: 9.0°C (48°F) [RH = 67%]
Pressure (altimeter): 29.85 inches Hg (1011.0 mb)
Winds: from the W (270 degrees) at 13 MPH (11 knots; 5.7 m/s)
Visibility: 6 or more miles (10+ km)
Ceiling: at least 12,000 feet AGL
Clouds: few clouds at 2000 feet AGL
Weather: no significant weather observed at this time

METAR text: YSSY 121800Z 28007KT 9999 FEW015 15/10 Q1011 FM1800 MOD TURB BLW 5000FT
Conditions at: YSSY (SYDNEY INTL AIRP, AU) observed 1800 UTC 12 November 2019
Temperature: 15.0°C (59°F)
Dewpoint: 10.0°C (50°F) [RH = 72%]
Pressure (altimeter): 29.85 inches Hg (1011.0 mb)
Winds: from the W (280 degrees) at 8 MPH (7 knots; 3.6 m/s)
Visibility: 6 or more miles (10+ km)
Ceiling: at least 12,000 feet AGL
Clouds: few clouds at 1500 feet AGL
Weather: no significant weather observed at this time

METAR text: YSSY 121730Z 30007KT CAVOK 15/11 Q1011 FM1730 MOD TURB BLW 5000FT
Conditions at: YSSY (SYDNEY INTL AIRP, AU) observed 1730 UTC 12 November 2019
Temperature: 15.0°C (59°F)
Dewpoint: 11.0°C (52°F) [RH = 77%]
Pressure (altimeter): 29.85 inches Hg (1011.0 mb)
Winds: from the WNW (300 degrees) at 8 MPH (7 knots; 3.6 m/s)
Visibility: 6 or more miles (10+ km)
Ceiling: ceiling and visibility are OK
Clouds: unknown
Weather: no significant weather observed at this time

METAR text: YSSY 121700Z 26006KT CAVOK 15/11 Q1010 FM1700 MOD TURB BLW 5000FT
Conditions at: YSSY (SYDNEY INTL AIRP, AU) observed 1700 UTC 12 November 2019
Temperature: 15.0°C (59°F)
Dewpoint: 11.0°C (52°F) [RH = 77%]
Pressure (altimeter): 29.82 inches Hg (1010.0 mb)
Winds: from the W (260 degrees) at 7 MPH (6 knots; 3.1 m/s)
Visibility: 6 or more miles (10+ km)
Ceiling: ceiling and visibility are OK
Clouds: unknown
Weather: no significant weather observed at this time

METAR text: YSSY 121630Z 24007KT CAVOK 15/11 Q1010 FM1630 MOD TURB BLW 5000FT
Conditions at: YSSY (SYDNEY INTL AIRP, AU) observed 1630 UTC 12 November 2019
Temperature: 15.0°C (59°F)
Dewpoint: 11.0°C (52°F) [RH = 77%]
Pressure (altimeter): 29.82 inches Hg (1010.0 mb)
Winds: from the WSW (240 degrees) at 8 MPH (7 knots; 3.6 m/s)
Visibility: 6 or more miles (10+ km)
Ceiling: ceiling and visibility are OK
Clouds: unknown
Weather: no significant weather observed at this time

METAR text: YSSY 121600Z 21007KT CAVOK 16/11 Q1010 FM1600 MOD TURB BLW 5000FT
Conditions at: YSSY (SYDNEY INTL AIRP, AU) observed 1600 UTC 12 November 2019
Temperature: 16.0°C (61°F)
Dewpoint: 11.0°C (52°F) [RH = 72%]
Pressure (altimeter): 29.82 inches Hg (1010.0 mb)
Winds: from the SSW (210 degrees) at 8 MPH (7 knots; 3.6 m/s)
Visibility: 6 or more miles (10+ km)
Ceiling: ceiling and visibility are OK
Clouds: unknown
Weather: no significant weather observed at this time

METAR text: YSSY 121530Z 17011KT CAVOK 17/12 Q1010 FM1530 MOD TURB BLW 5000FT
Conditions at: YSSY (SYDNEY INTL AIRP, AU) observed 1530 UTC 12 November 2019
Temperature: 17.0°C (63°F)
Dewpoint: 12.0°C (54°F) [RH = 72%]
Pressure (altimeter): 29.82 inches Hg (1010.0 mb)
Winds: from the S (170 degrees) at 13 MPH (11 knots; 5.7 m/s)
Visibility: 6 or more miles (10+ km)
Ceiling: ceiling and visibility are OK
Clouds: unknown
Weather: no significant weather observed at this time

METAR text: YSSY 121500Z 19012KT CAVOK 17/12 Q1010 FM1500 MOD TURB BLW 5000FT
Conditions at: YSSY (SYDNEY INTL AIRP, AU) observed 1500 UTC 12 November 2019
Temperature: 17.0°C (63°F)
Dewpoint: 12.0°C (54°F) [RH = 72%]
Pressure (altimeter): 29.82 inches Hg (1010.0 mb)
Winds: from the S (190 degrees) at 14 MPH (12 knots; 6.2 m/s)
Visibility: 6 or more miles (10+ km)
Ceiling: ceiling and visibility are OK
Clouds: unknown
Weather: no significant weather observed at this time

METAR text: YSSY 121430Z 17015KT 9999 FEW015 17/12 Q1010 FM1530 25012KT CAVOK FM1430 MOD TURB BLW 5000FT
Conditions at: YSSY (SYDNEY INTL AIRP, AU) observed 1430 UTC 12 November 2019
Temperature: 17.0°C (63°F)
Dewpoint: 12.0°C (54°F) [RH = 72%]
Pressure (altimeter): 29.82 inches Hg (1010.0 mb)
Winds: from the S (170 degrees) at 17 MPH (15 knots; 7.7 m/s)
Visibility: 6 or more miles (10+ km)
Ceiling: at least 12,000 feet AGL
Clouds: few clouds at 1500 feet AGL
Weather: no significant weather observed at this time

METAR text: YSSY 121400Z 17018KT 9999 FEW015 17/13 Q1010 FM1530 25012KT CAVOK FM1400 MOD TURB BLW 5000FT
Conditions at: YSSY (SYDNEY INTL AIRP, AU) observed 1400 UTC 12 November 2019
Temperature: 17.0°C (63°F)
Dewpoint: 13.0°C (55°F) [RH = 77%]
Pressure (altimeter): 29.82 inches Hg (1010.0 mb)
Winds: from the S (170 degrees) at 21 MPH (18 knots; 9.3 m/s)
Visibility: 6 or more miles (10+ km)
Ceiling: at least 12,000 feet AGL
Clouds: few clouds at 1500 feet AGL
Weather: no significant weather observed at this time

METAR text: YSSY 121330Z 17020KT 9999 FEW015 17/13 Q1010 FM1530 25012KT CAVOK FM1330 MOD TURB BLW 5000FT
Conditions at: YSSY (SYDNEY INTL AIRP, AU) observed 1330 UTC 12 November 2019
Temperature: 17.0°C (63°F)
Dewpoint: 13.0°C (55°F) [RH = 77%]
Pressure (altimeter): 29.82 inches Hg (1010.0 mb)
Winds: from the S (170 degrees) at 23 MPH (20 knots; 10.3 m/s)
Visibility: 6 or more miles (10+ km)
Ceiling: at least 12,000 feet AGL
Clouds: few clouds at 1500 feet AGL
Weather: no significant weather observed at this time

METAR text: YSSY 121300Z 17021KT 9999 FEW015 17/13 Q1009 FM1530 25012KT CAVOK FM1300 MOD TURB BLW 5000FT
Conditions at: YSSY (SYDNEY INTL AIRP, AU) observed 1300 UTC 12 November 2019
Temperature: 17.0°C (63°F)
Dewpoint: 13.0°C (55°F) [RH = 77%]
Pressure (altimeter): 29.79 inches Hg (1009.0 mb)
Winds: from the S (170 degrees) at 24 MPH (21 knots; 10.8 m/s)
Visibility: 6 or more miles (10+ km)
Ceiling: at least 12,000 feet AGL
Clouds: few clouds at 1500 feet AGL
Weather: no significant weather observed at this time

METAR text: YSSY 121230Z 17023KT 9999 FEW015 SCT025 17/13 Q1009 FM1230 MOD TURB BLW 5000FT
Conditions at: YSSY (SYDNEY INTL AIRP, AU) observed 1230 UTC 12 November 2019
Temperature: 17.0°C (63°F)
Dewpoint: 13.0°C (55°F) [RH = 77%]
Pressure (altimeter): 29.79 inches Hg (1009.0 mb)
Winds: from the S (170 degrees) at 26 MPH (23 knots; 11.8 m/s)
Visibility: 6 or more miles (10+ km)
Ceiling: at least 12,000 feet AGL
Clouds: few clouds at 1500 feet AGL
scattered clouds at 2500 feet AGL
Weather: no significant weather observed at this time

METAR text: YSSY 121200Z 17021KT 9999 FEW015 SCT025 18/14 Q1009 FM1200 MOD TURB BLW 5000FT
Conditions at: YSSY (SYDNEY INTL AIRP, AU) observed 1200 UTC 12 November 2019
Temperature: 18.0°C (64°F)
Dewpoint: 14.0°C (57°F) [RH = 77%]
Pressure (altimeter): 29.79 inches Hg (1009.0 mb)
Winds: from the S (170 degrees) at 24 MPH (21 knots; 10.8 m/s)
Visibility: 6 or more miles (10+ km)
Ceiling: at least 12,000 feet AGL
Clouds: few clouds at 1500 feet AGL
scattered clouds at 2500 feet AGL
Weather: no significant weather observed at this time

METAR text: YSSY 121133Z 17024G34KT 9999 FEW015 SCT175 18/14 Q1009 FM1200 18018G30KT 9999 FEW020 FM1133 MOD/SEV TURB BLW 5000FT TL1200 FM1200 MOD TURB BLW 5000FT
Conditions at: YSSY (SYDNEY INTL AIRP, AU) observed 1133 UTC 12 November 2019
Temperature: 18.0°C (64°F)
Dewpoint: 14.0°C (57°F) [RH = 77%]
Pressure (altimeter): 29.79 inches Hg (1009.0 mb)
Winds: from the S (170 degrees) at 28 MPH (24 knots; 12.3 m/s)
gusting to 39 MPH (34 knots; 17.5 m/s)
Visibility: 6 or more miles (10+ km)
Ceiling: at least 12,000 feet AGL
Clouds: few clouds at 1500 feet AGL
scattered clouds at 17500 feet AGL
Weather: no significant weather observed at this time

METAR text: YSSY 121103Z 17023G33KT 9999 FEW015 SCT170 18/14 Q1008 FM1200 18018G30KT 9999 FEW020 FM1103 MOD/SEV TURB BLW 5000FT TL1200 FM1200 MOD TURB BLW 5000FT
Conditions at: YSSY (SYDNEY INTL AIRP, AU) observed 1103 UTC 12 November 2019
Temperature: 18.0°C (64°F)
Dewpoint: 14.0°C (57°F) [RH = 77%]
Pressure (altimeter): 29.76 inches Hg (1008.0 mb)
Winds: from the S (170 degrees) at 26 MPH (23 knots; 11.8 m/s)
gusting to 38 MPH (33 knots; 17.0 m/s)
Visibility: 6 or more miles (10+ km)
Ceiling: at least 12,000 feet AGL
Clouds: few clouds at 1500 feet AGL
scattered clouds at 17000 feet AGL
Weather: no significant weather observed at this time

METAR text: YSSY 121100Z 17024KT 9999 FEW015 SCT020 BKN170 18/14 Q1008 FM1200 18018G30KT 9999 FEW020 FM1100 MOD/SEV TURB BLW 5000FT TL1200 FM1200 MOD TURB BLW 5000FT
Conditions at: YSSY (SYDNEY INTL AIRP, AU) observed 1100 UTC 12 November 2019
Temperature: 18.0°C (64°F)
Dewpoint: 14.0°C (57°F) [RH = 77%]
Pressure (altimeter): 29.76 inches Hg (1008.0 mb)
Winds: from the S (170 degrees) at 28 MPH (24 knots; 12.3 m/s)
Visibility: 6 or more miles (10+ km)
Ceiling: 17000 feet AGL
Clouds: few clouds at 1500 feet AGL
scattered clouds at 2000 feet AGL
broken clouds at 17000 feet AGL
Weather: no significant weather observed at this time

METAR text: YSSY 121030Z 17025KT 9000 DU SCT020 BKN170 18/15 Q1007 FM1200 18018G30KT 9999 FEW020 FM1030 MOD/SEV TURB BLW 5000FT TL1200 FM1200 MOD TURB BLW 5000FT
Conditions at: YSSY (SYDNEY INTL AIRP, AU) observed 1030 UTC 12 November 2019
Temperature: 18.0°C (64°F)
Dewpoint: 15.0°C (59°F) [RH = 83%]
Pressure (altimeter): 29.73 inches Hg (1007.0 mb)
Winds: from the S (170 degrees) at 29 MPH (25 knots; 12.9 m/s)
Visibility: 6 miles ( 9 km)
Ceiling: 17000 feet AGL
Clouds: scattered clouds at 2000 feet AGL
broken clouds at 17000 feet AGL
Weather: DU  (widespread dust)

METAR text: YSSY 121000Z 18028KT 9999 DU FEW015 BKN165 18/15 Q1006 FM1200 18018G30KT 9999 FEW020 FM1000 MOD/SEV TURB BLW 5000FT TL1200 FM1200 MOD TURB BLW 5000FT
Conditions at: YSSY (SYDNEY INTL AIRP, AU) observed 1000 UTC 12 November 2019
Temperature: 18.0°C (64°F)
Dewpoint: 15.0°C (59°F) [RH = 83%]
Pressure (altimeter): 29.70 inches Hg (1006.0 mb)
Winds: from the S (180 degrees) at 32 MPH (28 knots; 14.4 m/s)
Visibility: 6 or more miles (10+ km)
Ceiling: 16500 feet AGL
Clouds: few clouds at 1500 feet AGL
broken clouds at 16500 feet AGL
Weather: DU  (widespread dust)

METAR text: YSSY 120930Z 18027G37KT 9000 DU FEW015 BKN170 18/15 Q1006 FM1200 18018G30KT 9999 FEW020 FM0930 MOD/SEV TURB BLW 5000FT TL1200 FM1200 MOD TURB BLW 5000FT
Conditions at: YSSY (SYDNEY INTL AIRP, AU) observed 0930 UTC 12 November 2019
Temperature: 18.0°C (64°F)
Dewpoint: 15.0°C (59°F) [RH = 83%]
Pressure (altimeter): 29.70 inches Hg (1006.0 mb)
Winds: from the S (180 degrees) at 31 MPH (27 knots; 13.9 m/s)
gusting to 43 MPH (37 knots; 19.0 m/s)
Visibility: 6 miles ( 9 km)
Ceiling: 17000 feet AGL
Clouds: few clouds at 1500 feet AGL
broken clouds at 17000 feet AGL
Weather: DU  (widespread dust)

METAR text: YSSY 120900Z 18026G36KT 8000 DU FEW015 BKN170 19/16 Q1005 FM1200 18018G30KT 9999 FEW020 FM0900 MOD/SEV TURB BLW 5000FT TL1200 FM1200 MOD TURB BLW 5000FT
Conditions at: YSSY (SYDNEY INTL AIRP, AU) observed 0900 UTC 12 November 2019
Temperature: 19.0°C (66°F)
Dewpoint: 16.0°C (61°F) [RH = 83%]
Pressure (altimeter): 29.68 inches Hg (1005.0 mb)
Winds: from the S (180 degrees) at 30 MPH (26 knots; 13.4 m/s)
gusting to 41 MPH (36 knots; 18.5 m/s)
Visibility: 5 miles ( 8 km)
Ceiling: 17000 feet AGL
Clouds: few clouds at 1500 feet AGL
broken clouds at 17000 feet AGL
Weather: DU  (widespread dust)

METAR text: YSSY 120830Z 18029G39KT 9000 DU NSC 20/15 Q1003 FM0830 MOD/SEV TURB BLW 5000FT
Conditions at: YSSY (SYDNEY INTL AIRP, AU) observed 0830 UTC 12 November 2019
Temperature: 20.0°C (68°F)
Dewpoint: 15.0°C (59°F) [RH = 73%]
Pressure (altimeter): 29.62 inches Hg (1003.0 mb)
Winds: from the S (180 degrees) at 33 MPH (29 knots; 14.9 m/s)
gusting to 45 MPH (39 knots; 20.1 m/s)
Visibility: 6 miles ( 9 km)
Ceiling: at least 12,000 feet AGL
Clouds: sky clear below 12,000 feet AGL
Weather: DU  (widespread dust)

METAR text: YSSY 120815Z 18027G37KT 9000 DU NSC 21/15 Q1002 FM0830 19022G35KT 9999 FEW012 FM0815 MOD/SEV TURB BLW 5000FT
Conditions at: YSSY (SYDNEY INTL AIRP, AU) observed 0815 UTC 12 November 2019
Temperature: 21.0°C (70°F)
Dewpoint: 15.0°C (59°F) [RH = 69%]
Pressure (altimeter): 29.59 inches Hg (1002.0 mb)
Winds: from the S (180 degrees) at 31 MPH (27 knots; 13.9 m/s)
gusting to 43 MPH (37 knots; 19.0 m/s)
Visibility: 6 miles ( 9 km)
Ceiling: at least 12,000 feet AGL
Clouds: sky clear below 12,000 feet AGL
Weather: DU  (widespread dust)

METAR text: YSSY 120807Z 19022G37KT 180V250 6000 DU NSC 23/08 Q1002 FM0830 19022G35KT 9999 FEW012 FM0807 MOD/SEV TURB BLW 5000FT
Conditions at: YSSY (SYDNEY INTL AIRP, AU) observed 0807 UTC 12 November 2019
Temperature: 23.0°C (73°F)
Dewpoint: 8.0°C (46°F) [RH = 38%]
Pressure (altimeter): 29.59 inches Hg (1002.0 mb)
Winds: from the S (190 degrees) at 25 MPH (22 knots; 11.3 m/s)
gusting to 43 MPH (37 knots; 19.0 m/s)
Visibility: 4 miles ( 6 km)
Ceiling: at least 12,000 feet AGL
Clouds: sky clear below 12,000 feet AGL
Weather: DU  (widespread dust)

Forecast for: YSSY (SYDNEY INTL AIRP, AU)
Text: TAF YSSY 131631Z 1318/1500 25010KT CAVOK
Forecast period: 1800 UTC 13 November 2019 to 0100 UTC 14 November 2019
Forecast type: FROM: standard forecast or significant change
Winds: from the WSW (250 degrees) at 12 MPH (10 knots; 5.1 m/s)
Visibility: 6 or more miles 10+ km)
Ceiling: unknown
Clouds: missing
Weather: NSW  (no significant weather)
Text: FM140100 12013KT CAVOK
Forecast period: 0100 to 0300 UTC 14 November 2019
Forecast type: FROM: standard forecast or significant change
Winds: from the ESE (120 degrees) at 15 MPH (13 knots; 6.7 m/s)
Visibility: 6 or more miles 10+ km)
Ceiling: unknown
Clouds: missing
Weather: NSW  (no significant weather)
Text: FM140300 04018KT CAVOK
Forecast period: 0300 to 0900 UTC 14 November 2019
Forecast type: FROM: standard forecast or significant change
Winds: from the NE (40 degrees) at 21 MPH (18 knots; 9.3 m/s)
Visibility: 6 or more miles 10+ km)
Ceiling: unknown
Clouds: missing
Weather: NSW  (no significant weather)
Text: FM140900 01010KT CAVOK
Forecast period: 0900 to 1200 UTC 14 November 2019
Forecast type: FROM: standard forecast or significant change
Winds: from the N (10 degrees) at 12 MPH (10 knots; 5.1 m/s)
Visibility: 6 or more miles 10+ km)
Ceiling: unknown
Clouds: missing
Weather: NSW  (no significant weather)
Text: FM141200 29008KT CAVOK
Forecast period: 1200 UTC 14 November 2019 to 0000 UTC 15 November 2019
Forecast type: FROM: standard forecast or significant change
Winds: from the WNW (290 degrees) at 9 MPH (8 knots; 4.1 m/s)
Visibility: 6 or more miles 10+ km)
Ceiling: unknown
Clouds: missing
Weather: NSW  (no significant weather)